sensor_id;sensor_type;location;lat;lon;timestamp;P1;durP1;ratioP1;P2;durP2;ratioP2
19436;SDS011;9854;50.968;4.168;2023-03-01T00:01:16;14.60;;;12.20;;
19436;SDS011;9854;50.968;4.168;2023-03-01T00:03:48;17.43;;;12.57;;
19436;SDS011;9854;50.968;4.168;2023-03-01T00:06:14;15.53;;;13.00;;
19436;SDS011;9854;50.968;4.168;2023-03-01T00:08:39;16.27;;;12.60;;
19436;SDS011;9854;50.968;4.168;2023-03-01T00:11:06;14.20;;;12.50;;
19436;SDS011;9854;50.968;4.168;2023-03-01T00:13:36;18.80;;;12.70;;
19436;SDS011;9854;50.968;4.168;2023-03-01T00:16:03;18.33;;;12.80;;
19436;SDS011;9854;50.968;4.168;2023-03-01T00:18:30;17.23;;;13.10;;
19436;SDS011;9854;50.968;4.168;2023-03-01T00:20:56;14.63;;;12.47;;
19436;SDS011;9854;50.968;4.168;2023-03-01T00:23:23;15.97;;;12.43;;
19436;SDS011;9854;50.968;4.168;2023-03-01T00:25:49;17.20;;;13.10;;
19436;SDS011;9854;50.968;4.168;2023-03-01T00:28:15;22.37;;;14.57;;
19436;SDS011;9854;50.968;4.168;2023-03-01T00:30:42;22.47;;;14.60;;
19436;SDS011;9854;50.968;4.168;2023-03-01T00:33:08;19.53;;;13.60;;
19436;SDS011;9854;50.968;4.168;2023-03-01T00:35:33;20.60;;;13.37;;
19436;SDS011;9854;50.968;4.168;2023-03-01T00:38:00;20.47;;;14.17;;
19436;SDS011;9854;50.968;4.168;2023-03-01T00:40:27;16.80;;;14.10;;
19436;SDS011;9854;50.968;4.168;2023-03-01T00:42:53;17.23;;;13.70;;
19436;SDS011;9854;50.968;4.168;2023-03-01T00:45:20;18.90;;;13.93;;
19436;SDS011;9854;50.968;4.168;2023-03-01T00:47:46;16.43;;;12.83;;
19436;SDS011;9854;50.968;4.168;2023-03-01T00:50:12;15.53;;;12.77;;
19436;SDS011;9854;50.968;4.168;2023-03-01T00:52:38;15.57;;;13.30;;
19436;SDS011;9854;50.968;4.168;2023-03-01T00:55:04;20.67;;;14.00;;
19436;SDS011;9854;50.968;4.168;2023-03-01T00:57:30;16.73;;;12.80;;
19436;SDS011;9854;50.968;4.168;2023-03-01T00:59:57;17.33;;;13.57;;
19436;SDS011;9854;50.968;4.168;2023-03-01T01:02:22;18.17;;;13.00;;
19436;SDS011;9854;50.968;4.168;2023-03-01T01:04:48;17.93;;;12.77;;
19436;SDS011;9854;50.968;4.168;2023-03-01T01:07:14;14.63;;;13.03;;
19436;SDS011;9854;50.968;4.168;2023-03-01T01:09:40;15.43;;;12.93;;
19436;SDS011;9854;50.968;4.168;2023-03-01T01:12:06;15.97;;;12.50;;
19436;SDS011;9854;50.968;4.168;2023-03-01T01:14:32;14.70;;;13.00;;
19436;SDS011;9854;50.968;4.168;2023-03-01T01:16:58;17.43;;;12.17;;
19436;SDS011;9854;50.968;4.168;2023-03-01T01:19:24;15.70;;;13.00;;
19436;SDS011;9854;50.968;4.168;2023-03-01T01:21:50;15.27;;;11.80;;
19436;SDS011;9854;50.968;4.168;2023-03-01T01:24:17;18.20;;;12.70;;
19436;SDS011;9854;50.968;4.168;2023-03-01T01:26:43;18.43;;;12.47;;
19436;SDS011;9854;50.968;4.168;2023-03-01T01:29:09;15.80;;;12.43;;
19436;SDS011;9854;50.968;4.168;2023-03-01T01:31:36;16.83;;;12.63;;
19436;SDS011;9854;50.968;4.168;2023-03-01T01:34:04;14.73;;;11.97;;
19436;SDS011;9854;50.968;4.168;2023-03-01T01:36:31;13.07;;;11.63;;
19436;SDS011;9854;50.968;4.168;2023-03-01T01:38:58;13.47;;;11.80;;
19436;SDS011;9854;50.968;4.168;2023-03-01T01:41:25;15.30;;;12.07;;
19436;SDS011;9854;50.968;4.168;2023-03-01T01:46:46;16.87;;;12.03;;
19436;SDS011;9854;50.968;4.168;2023-03-01T01:51:46;17.70;;;11.47;;
19436;SDS011;9854;50.968;4.168;2023-03-01T01:57:24;15.13;;;11.03;;
19436;SDS011;9854;50.968;4.168;2023-03-01T01:59:53;22.33;;;12.13;;
19436;SDS011;9854;50.968;4.168;2023-03-01T02:02:22;13.33;;;11.37;;
19436;SDS011;9854;50.968;4.168;2023-03-01T02:04:48;20.90;;;11.63;;
19436;SDS011;9854;50.968;4.168;2023-03-01T02:07:19;16.40;;;10.97;;
19436;SDS011;9854;50.968;4.168;2023-03-01T02:09:48;13.97;;;11.53;;
19436;SDS011;9854;50.968;4.168;2023-03-01T02:12:17;14.87;;;12.00;;
19436;SDS011;9854;50.968;4.168;2023-03-01T02:14:45;12.93;;;11.63;;
19436;SDS011;9854;50.968;4.168;2023-03-01T02:17:11;12.47;;;11.17;;
19436;SDS011;9854;50.968;4.168;2023-03-01T02:19:46;14.20;;;10.90;;
19436;SDS011;9854;50.968;4.168;2023-03-01T02:22:31;16.20;;;12.30;;
19436;SDS011;9854;50.968;4.168;2023-03-01T02:25:07;13.23;;;11.23;;
19436;SDS011;9854;50.968;4.168;2023-03-01T02:30:16;13.87;;;11.63;;
19436;SDS011;9854;50.968;4.168;2023-03-01T02:32:43;15.03;;;11.73;;
19436;SDS011;9854;50.968;4.168;2023-03-01T02:35:13;16.30;;;11.87;;
19436;SDS011;9854;50.968;4.168;2023-03-01T02:37:41;19.67;;;12.03;;
19436;SDS011;9854;50.968;4.168;2023-03-01T02:40:09;14.80;;;11.47;;
19436;SDS011;9854;50.968;4.168;2023-03-01T02:42:40;12.43;;;11.03;;
19436;SDS011;9854;50.968;4.168;2023-03-01T02:45:20;13.37;;;11.77;;
19436;SDS011;9854;50.968;4.168;2023-03-01T02:47:46;16.30;;;11.03;;
19436;SDS011;9854;50.968;4.168;2023-03-01T02:50:15;13.80;;;11.57;;
19436;SDS011;9854;50.968;4.168;2023-03-01T02:53:24;14.57;;;11.63;;
19436;SDS011;9854;50.968;4.168;2023-03-01T02:55:48;26.77;;;11.53;;
19436;SDS011;9854;50.968;4.168;2023-03-01T02:58:14;13.93;;;11.57;;
19436;SDS011;9854;50.968;4.168;2023-03-01T03:00:42;17.53;;;11.17;;
19436;SDS011;9854;50.968;4.168;2023-03-01T03:03:15;15.40;;;11.33;;
19436;SDS011;9854;50.968;4.168;2023-03-01T03:05:44;15.03;;;11.17;;
19436;SDS011;9854;50.968;4.168;2023-03-01T03:08:10;15.23;;;11.93;;
19436;SDS011;9854;50.968;4.168;2023-03-01T03:10:37;17.90;;;12.10;;
19436;SDS011;9854;50.968;4.168;2023-03-01T03:13:06;13.13;;;10.93;;
19436;SDS011;9854;50.968;4.168;2023-03-01T03:15:34;14.53;;;12.03;;
19436;SDS011;9854;50.968;4.168;2023-03-01T03:18:01;12.63;;;11.10;;
19436;SDS011;9854;50.968;4.168;2023-03-01T03:20:30;16.57;;;12.40;;
19436;SDS011;9854;50.968;4.168;2023-03-01T03:22:56;14.20;;;11.17;;
19436;SDS011;9854;50.968;4.168;2023-03-01T03:25:26;14.47;;;10.93;;
19436;SDS011;9854;50.968;4.168;2023-03-01T03:27:52;14.20;;;11.90;;
19436;SDS011;9854;50.968;4.168;2023-03-01T03:30:29;13.00;;;11.30;;
19436;SDS011;9854;50.968;4.168;2023-03-01T03:32:56;15.67;;;11.47;;
19436;SDS011;9854;50.968;4.168;2023-03-01T03:37:55;18.27;;;12.60;;
19436;SDS011;9854;50.968;4.168;2023-03-01T03:40:37;14.77;;;13.10;;
19436;SDS011;9854;50.968;4.168;2023-03-01T03:43:05;17.50;;;11.77;;
19436;SDS011;9854;50.968;4.168;2023-03-01T03:45:33;18.07;;;11.10;;
19436;SDS011;9854;50.968;4.168;2023-03-01T03:48:00;14.13;;;11.07;;
19436;SDS011;9854;50.968;4.168;2023-03-01T03:50:27;12.75;;;11.50;;
19436;SDS011;9854;50.968;4.168;2023-03-01T03:52:52;13.97;;;11.50;;
19436;SDS011;9854;50.968;4.168;2023-03-01T03:55:18;18.07;;;11.50;;
19436;SDS011;9854;50.968;4.168;2023-03-01T03:57:44;13.37;;;11.13;;
19436;SDS011;9854;50.968;4.168;2023-03-01T04:00:20;13.43;;;11.07;;
19436;SDS011;9854;50.968;4.168;2023-03-01T04:02:48;14.17;;;11.87;;
19436;SDS011;9854;50.968;4.168;2023-03-01T04:05:16;15.33;;;11.30;;
19436;SDS011;9854;50.968;4.168;2023-03-01T04:07:43;13.73;;;11.40;;
19436;SDS011;9854;50.968;4.168;2023-03-01T04:10:10;14.53;;;11.80;;
19436;SDS011;9854;50.968;4.168;2023-03-01T04:12:38;17.83;;;11.93;;
19436;SDS011;9854;50.968;4.168;2023-03-01T04:15:05;12.70;;;10.67;;
19436;SDS011;9854;50.968;4.168;2023-03-01T04:17:41;16.33;;;11.00;;
19436;SDS011;9854;50.968;4.168;2023-03-01T04:20:08;12.73;;;11.17;;
19436;SDS011;9854;50.968;4.168;2023-03-01T04:22:42;12.20;;;10.90;;
19436;SDS011;9854;50.968;4.168;2023-03-01T04:25:12;15.07;;;11.73;;
19436;SDS011;9854;50.968;4.168;2023-03-01T04:27:39;13.63;;;11.33;;
19436;SDS011;9854;50.968;4.168;2023-03-01T04:30:06;16.47;;;11.07;;
19436;SDS011;9854;50.968;4.168;2023-03-01T04:32:33;14.07;;;12.68;;
19436;SDS011;9854;50.968;4.168;2023-03-01T04:34:58;17.30;;;12.37;;
19436;SDS011;9854;50.968;4.168;2023-03-01T04:37:24;13.37;;;11.53;;
19436;SDS011;9854;50.968;4.168;2023-03-01T04:39:50;17.33;;;12.00;;
19436;SDS011;9854;50.968;4.168;2023-03-01T04:42:16;18.90;;;11.73;;
19436;SDS011;9854;50.968;4.168;2023-03-01T04:44:43;16.67;;;11.33;;
19436;SDS011;9854;50.968;4.168;2023-03-01T04:47:09;14.50;;;11.60;;
19436;SDS011;9854;50.968;4.168;2023-03-01T04:49:35;14.17;;;11.53;;
19436;SDS011;9854;50.968;4.168;2023-03-01T04:52:01;18.13;;;11.20;;
19436;SDS011;9854;50.968;4.168;2023-03-01T04:54:28;13.20;;;11.37;;
19436;SDS011;9854;50.968;4.168;2023-03-01T04:56:55;12.87;;;10.53;;
19436;SDS011;9854;50.968;4.168;2023-03-01T04:59:20;18.93;;;12.00;;
19436;SDS011;9854;50.968;4.168;2023-03-01T05:01:48;14.50;;;12.23;;
19436;SDS011;9854;50.968;4.168;2023-03-01T05:04:14;13.30;;;11.00;;
19436;SDS011;9854;50.968;4.168;2023-03-01T05:06:39;13.57;;;11.27;;
19436;SDS011;9854;50.968;4.168;2023-03-01T05:09:05;14.10;;;11.80;;
19436;SDS011;9854;50.968;4.168;2023-03-01T05:11:31;18.00;;;12.03;;
19436;SDS011;9854;50.968;4.168;2023-03-01T05:14:01;16.27;;;11.60;;
19436;SDS011;9854;50.968;4.168;2023-03-01T05:16:27;14.13;;;11.43;;
19436;SDS011;9854;50.968;4.168;2023-03-01T05:18:53;13.97;;;11.63;;
19436;SDS011;9854;50.968;4.168;2023-03-01T05:21:20;14.97;;;12.23;;
19436;SDS011;9854;50.968;4.168;2023-03-01T05:23:46;12.93;;;10.57;;
19436;SDS011;9854;50.968;4.168;2023-03-01T05:26:12;16.30;;;12.13;;
19436;SDS011;9854;50.968;4.168;2023-03-01T05:28:39;16.10;;;11.33;;
19436;SDS011;9854;50.968;4.168;2023-03-01T05:31:05;16.53;;;10.90;;
19436;SDS011;9854;50.968;4.168;2023-03-01T05:33:37;20.30;;;11.30;;
19436;SDS011;9854;50.968;4.168;2023-03-01T05:36:06;17.87;;;11.33;;
19436;SDS011;9854;50.968;4.168;2023-03-01T05:38:34;16.17;;;11.37;;
19436;SDS011;9854;50.968;4.168;2023-03-01T05:41:00;18.63;;;10.83;;
19436;SDS011;9854;50.968;4.168;2023-03-01T05:43:26;19.83;;;11.70;;
19436;SDS011;9854;50.968;4.168;2023-03-01T05:45:55;23.27;;;11.97;;
19436;SDS011;9854;50.968;4.168;2023-03-01T05:48:22;19.40;;;11.80;;
19436;SDS011;9854;50.968;4.168;2023-03-01T05:50:48;16.47;;;11.67;;
19436;SDS011;9854;50.968;4.168;2023-03-01T05:53:17;20.77;;;11.87;;
19436;SDS011;9854;50.968;4.168;2023-03-01T05:55:48;15.67;;;11.30;;
19436;SDS011;9854;50.968;4.168;2023-03-01T05:58:16;16.47;;;11.80;;
19436;SDS011;9854;50.968;4.168;2023-03-01T06:00:44;18.43;;;12.33;;
19436;SDS011;9854;50.968;4.168;2023-03-01T06:03:12;20.17;;;11.63;;
19436;SDS011;9854;50.968;4.168;2023-03-01T06:05:39;19.40;;;12.63;;
19436;SDS011;9854;50.968;4.168;2023-03-01T06:08:05;12.93;;;11.50;;
19436;SDS011;9854;50.968;4.168;2023-03-01T06:10:31;16.57;;;10.63;;
19436;SDS011;9854;50.968;4.168;2023-03-01T06:12:57;15.63;;;11.67;;
19436;SDS011;9854;50.968;4.168;2023-03-01T06:15:23;17.10;;;12.30;;
19436;SDS011;9854;50.968;4.168;2023-03-01T06:17:50;17.03;;;12.07;;
19436;SDS011;9854;50.968;4.168;2023-03-01T06:20:17;21.57;;;15.00;;
19436;SDS011;9854;50.968;4.168;2023-03-01T06:22:44;16.17;;;12.53;;
19436;SDS011;9854;50.968;4.168;2023-03-01T06:25:12;18.17;;;12.40;;
19436;SDS011;9854;50.968;4.168;2023-03-01T06:27:39;18.02;;;12.98;;
19436;SDS011;9854;50.968;4.168;2023-03-01T06:30:06;23.40;;;13.47;;
19436;SDS011;9854;50.968;4.168;2023-03-01T06:32:32;21.70;;;12.73;;
19436;SDS011;9854;50.968;4.168;2023-03-01T06:34:58;21.30;;;13.33;;
19436;SDS011;9854;50.968;4.168;2023-03-01T06:37:24;21.65;;;15.32;;
19436;SDS011;9854;50.968;4.168;2023-03-01T06:39:50;21.03;;;13.40;;
19436;SDS011;9854;50.968;4.168;2023-03-01T06:42:16;23.07;;;14.30;;
19436;SDS011;9854;50.968;4.168;2023-03-01T06:44:42;20.20;;;13.77;;
19436;SDS011;9854;50.968;4.168;2023-03-01T06:47:08;19.13;;;14.33;;
19436;SDS011;9854;50.968;4.168;2023-03-01T06:49:34;20.47;;;13.37;;
19436;SDS011;9854;50.968;4.168;2023-03-01T06:51:59;25.40;;;15.60;;
19436;SDS011;9854;50.968;4.168;2023-03-01T06:54:25;22.90;;;14.07;;
19436;SDS011;9854;50.968;4.168;2023-03-01T06:56:51;23.63;;;14.13;;
19436;SDS011;9854;50.968;4.168;2023-03-01T06:59:18;26.47;;;14.43;;
19436;SDS011;9854;50.968;4.168;2023-03-01T07:01:44;26.20;;;13.27;;
19436;SDS011;9854;50.968;4.168;2023-03-01T07:04:10;26.97;;;14.10;;
19436;SDS011;9854;50.968;4.168;2023-03-01T07:06:36;24.70;;;14.90;;
19436;SDS011;9854;50.968;4.168;2023-03-01T07:09:01;24.03;;;14.20;;
19436;SDS011;9854;50.968;4.168;2023-03-01T07:11:27;27.70;;;15.10;;
19436;SDS011;9854;50.968;4.168;2023-03-01T07:13:53;22.53;;;14.30;;
19436;SDS011;9854;50.968;4.168;2023-03-01T07:16:19;26.57;;;15.00;;
19436;SDS011;9854;50.968;4.168;2023-03-01T07:18:45;21.93;;;13.97;;
19436;SDS011;9854;50.968;4.168;2023-03-01T07:21:12;36.70;;;14.67;;
19436;SDS011;9854;50.968;4.168;2023-03-01T07:23:38;21.53;;;14.07;;
19436;SDS011;9854;50.968;4.168;2023-03-01T07:26:04;25.20;;;13.80;;
19436;SDS011;9854;50.968;4.168;2023-03-01T07:28:30;25.20;;;14.33;;
19436;SDS011;9854;50.968;4.168;2023-03-01T07:31:00;22.37;;;14.17;;
19436;SDS011;9854;50.968;4.168;2023-03-01T07:33:27;26.67;;;14.57;;
19436;SDS011;9854;50.968;4.168;2023-03-01T07:35:56;22.93;;;14.23;;
19436;SDS011;9854;50.968;4.168;2023-03-01T07:38:27;24.27;;;13.27;;
19436;SDS011;9854;50.968;4.168;2023-03-01T07:40:54;22.60;;;13.10;;
19436;SDS011;9854;50.968;4.168;2023-03-01T07:43:27;18.57;;;14.23;;
19436;SDS011;9854;50.968;4.168;2023-03-01T07:45:59;19.90;;;13.63;;
19436;SDS011;9854;50.968;4.168;2023-03-01T07:48:25;18.37;;;13.43;;
19436;SDS011;9854;50.968;4.168;2023-03-01T07:50:51;18.47;;;12.43;;
19436;SDS011;9854;50.968;4.168;2023-03-01T07:53:17;20.27;;;12.17;;
19436;SDS011;9854;50.968;4.168;2023-03-01T07:55:42;17.13;;;12.37;;
19436;SDS011;9854;50.968;4.168;2023-03-01T07:58:08;19.60;;;13.03;;
19436;SDS011;9854;50.968;4.168;2023-03-01T08:00:34;20.07;;;12.83;;
19436;SDS011;9854;50.968;4.168;2023-03-01T08:03:00;15.07;;;11.80;;
19436;SDS011;9854;50.968;4.168;2023-03-01T08:05:27;19.03;;;12.23;;
19436;SDS011;9854;50.968;4.168;2023-03-01T08:07:52;19.03;;;12.43;;
19436;SDS011;9854;50.968;4.168;2023-03-01T08:10:19;23.17;;;12.50;;
19436;SDS011;9854;50.968;4.168;2023-03-01T08:12:44;18.00;;;12.53;;
19436;SDS011;9854;50.968;4.168;2023-03-01T08:15:10;21.33;;;13.63;;
19436;SDS011;9854;50.968;4.168;2023-03-01T08:17:36;19.37;;;12.43;;
19436;SDS011;9854;50.968;4.168;2023-03-01T08:20:02;16.37;;;12.20;;
19436;SDS011;9854;50.968;4.168;2023-03-01T08:22:31;22.47;;;13.30;;
19436;SDS011;9854;50.968;4.168;2023-03-01T08:24:56;16.30;;;12.83;;
19436;SDS011;9854;50.968;4.168;2023-03-01T08:27:22;16.23;;;13.10;;
19436;SDS011;9854;50.968;4.168;2023-03-01T08:29:48;23.63;;;13.30;;
19436;SDS011;9854;50.968;4.168;2023-03-01T08:32:13;26.67;;;13.23;;
19436;SDS011;9854;50.968;4.168;2023-03-01T08:34:39;16.00;;;12.67;;
19436;SDS011;9854;50.968;4.168;2023-03-01T08:37:05;16.20;;;12.57;;
19436;SDS011;9854;50.968;4.168;2023-03-01T08:39:30;15.70;;;12.63;;
19436;SDS011;9854;50.968;4.168;2023-03-01T08:41:56;14.53;;;12.63;;
19436;SDS011;9854;50.968;4.168;2023-03-01T08:44:22;14.60;;;12.10;;
19436;SDS011;9854;50.968;4.168;2023-03-01T08:46:48;15.97;;;12.87;;
19436;SDS011;9854;50.968;4.168;2023-03-01T08:49:18;15.37;;;12.23;;
19436;SDS011;9854;50.968;4.168;2023-03-01T08:51:45;15.87;;;11.67;;
19436;SDS011;9854;50.968;4.168;2023-03-01T08:54:12;13.40;;;11.97;;
19436;SDS011;9854;50.968;4.168;2023-03-01T08:56:43;17.07;;;12.57;;
19436;SDS011;9854;50.968;4.168;2023-03-01T08:59:09;13.37;;;11.93;;
19436;SDS011;9854;50.968;4.168;2023-03-01T09:01:38;12.90;;;11.57;;
19436;SDS011;9854;50.968;4.168;2023-03-01T09:04:05;16.67;;;12.10;;
19436;SDS011;9854;50.968;4.168;2023-03-01T09:06:31;16.80;;;12.70;;
19436;SDS011;9854;50.968;4.168;2023-03-01T09:08:58;17.37;;;12.67;;
19436;SDS011;9854;50.968;4.168;2023-03-01T09:11:23;16.20;;;11.93;;
19436;SDS011;9854;50.968;4.168;2023-03-01T09:13:49;14.20;;;11.73;;
19436;SDS011;9854;50.968;4.168;2023-03-01T09:16:16;19.03;;;12.83;;
19436;SDS011;9854;50.968;4.168;2023-03-01T09:18:43;13.70;;;12.33;;
19436;SDS011;9854;50.968;4.168;2023-03-01T09:21:14;16.87;;;12.67;;
19436;SDS011;9854;50.968;4.168;2023-03-01T09:23:42;13.50;;;12.20;;
19436;SDS011;9854;50.968;4.168;2023-03-01T09:26:10;17.77;;;12.90;;
19436;SDS011;9854;50.968;4.168;2023-03-01T09:28:38;12.93;;;11.50;;
19436;SDS011;9854;50.968;4.168;2023-03-01T09:31:05;13.33;;;12.03;;
19436;SDS011;9854;50.968;4.168;2023-03-01T09:33:32;14.77;;;11.43;;
19436;SDS011;9854;50.968;4.168;2023-03-01T09:35:59;14.13;;;12.17;;
19436;SDS011;9854;50.968;4.168;2023-03-01T09:38:25;14.67;;;12.33;;
19436;SDS011;9854;50.968;4.168;2023-03-01T09:40:51;13.40;;;11.57;;
19436;SDS011;9854;50.968;4.168;2023-03-01T09:45:55;12.90;;;11.67;;
19436;SDS011;9854;50.968;4.168;2023-03-01T09:48:28;12.17;;;10.97;;
19436;SDS011;9854;50.968;4.168;2023-03-01T09:51:02;11.93;;;10.73;;
19436;SDS011;9854;50.968;4.168;2023-03-01T09:53:37;16.03;;;11.30;;
19436;SDS011;9854;50.968;4.168;2023-03-01T10:09:35;12.00;;;10.77;;
19436;SDS011;9854;50.968;4.168;2023-03-01T10:12:04;20.60;;;12.43;;
19436;SDS011;9854;50.968;4.168;2023-03-01T10:14:39;12.20;;;10.63;;
19436;SDS011;9854;50.968;4.168;2023-03-01T10:20:08;12.90;;;11.10;;
19436;SDS011;9854;50.968;4.168;2023-03-01T10:22:42;13.03;;;10.70;;
19436;SDS011;9854;50.968;4.168;2023-03-01T10:25:13;14.57;;;10.63;;
19436;SDS011;9854;50.968;4.168;2023-03-01T10:27:45;12.77;;;10.67;;
19436;SDS011;9854;50.968;4.168;2023-03-01T10:30:17;11.73;;;10.33;;
19436;SDS011;9854;50.968;4.168;2023-03-01T10:32:48;11.40;;;10.20;;
19436;SDS011;9854;50.968;4.168;2023-03-01T10:35:18;11.47;;;10.23;;
19436;SDS011;9854;50.968;4.168;2023-03-01T10:46:25;10.50;;;9.37;;
19436;SDS011;9854;50.968;4.168;2023-03-01T10:51:45;14.57;;;9.63;;
19436;SDS011;9854;50.968;4.168;2023-03-01T10:54:22;15.60;;;9.67;;
19436;SDS011;9854;50.968;4.168;2023-03-01T10:56:53;11.00;;;9.80;;
19436;SDS011;9854;50.968;4.168;2023-03-01T11:02:11;15.97;;;10.17;;
19436;SDS011;9854;50.968;4.168;2023-03-01T11:04:59;11.30;;;9.90;;
19436;SDS011;9854;50.968;4.168;2023-03-01T11:07:27;10.27;;;9.23;;
19436;SDS011;9854;50.968;4.168;2023-03-01T11:09:53;10.50;;;9.33;;
19436;SDS011;9854;50.968;4.168;2023-03-01T11:12:20;11.27;;;10.10;;
19436;SDS011;9854;50.968;4.168;2023-03-01T11:14:56;10.47;;;9.37;;
19436;SDS011;9854;50.968;4.168;2023-03-01T11:17:29;13.63;;;10.33;;
19436;SDS011;9854;50.968;4.168;2023-03-01T11:20:13;17.03;;;10.47;;
19436;SDS011;9854;50.968;4.168;2023-03-01T11:22:45;12.43;;;10.13;;
19436;SDS011;9854;50.968;4.168;2023-03-01T11:25:15;18.47;;;10.30;;
19436;SDS011;9854;50.968;4.168;2023-03-01T11:27:44;15.53;;;9.80;;
19436;SDS011;9854;50.968;4.168;2023-03-01T11:36:10;10.90;;;9.63;;
19436;SDS011;9854;50.968;4.168;2023-03-01T11:38:43;13.83;;;9.23;;
19436;SDS011;9854;50.968;4.168;2023-03-01T11:41:16;11.70;;;9.97;;
19436;SDS011;9854;50.968;4.168;2023-03-01T11:43:55;13.37;;;9.77;;
19436;SDS011;9854;50.968;4.168;2023-03-01T12:02:39;10.57;;;9.33;;
19436;SDS011;9854;50.968;4.168;2023-03-01T12:05:36;9.50;;;8.60;;
19436;SDS011;9854;50.968;4.168;2023-03-01T12:11:57;10.47;;;7.87;;
19436;SDS011;9854;50.968;4.168;2023-03-01T12:19:38;9.30;;;8.40;;
19436;SDS011;9854;50.968;4.168;2023-03-01T12:22:29;9.82;;;7.75;;
19436;SDS011;9854;50.968;4.168;2023-03-01T12:25:38;9.23;;;8.05;;
19436;SDS011;9854;50.968;4.168;2023-03-01T12:34:02;9.85;;;8.50;;
19436;SDS011;9854;50.968;4.168;2023-03-01T12:42:23;9.02;;;8.13;;
19436;SDS011;9854;50.968;4.168;2023-03-01T12:50:37;15.57;;;8.57;;
19436;SDS011;9854;50.968;4.168;2023-03-01T12:53:07;11.32;;;8.93;;
19436;SDS011;9854;50.968;4.168;2023-03-01T12:55:44;9.52;;;7.93;;
19436;SDS011;9854;50.968;4.168;2023-03-01T12:58:24;9.63;;;8.00;;
19436;SDS011;9854;50.968;4.168;2023-03-01T13:06:40;11.20;;;7.82;;
19436;SDS011;9854;50.968;4.168;2023-03-01T13:11:44;7.70;;;6.90;;
19436;SDS011;9854;50.968;4.168;2023-03-01T13:16:52;10.93;;;7.53;;
19436;SDS011;9854;50.968;4.168;2023-03-01T13:19:21;9.85;;;7.40;;
19436;SDS011;9854;50.968;4.168;2023-03-01T13:21:54;12.20;;;8.00;;
19436;SDS011;9854;50.968;4.168;2023-03-01T13:32:31;9.68;;;7.50;;
19436;SDS011;9854;50.968;4.168;2023-03-01T13:35:02;7.80;;;7.10;;
19436;SDS011;9854;50.968;4.168;2023-03-01T13:37:48;9.75;;;7.57;;
19436;SDS011;9854;50.968;4.168;2023-03-01T13:42:46;11.02;;;7.38;;
19436;SDS011;9854;50.968;4.168;2023-03-01T13:45:20;8.73;;;7.28;;
19436;SDS011;9854;50.968;4.168;2023-03-01T13:48:08;7.88;;;7.18;;
19436;SDS011;9854;50.968;4.168;2023-03-01T13:50:45;8.48;;;7.30;;
19436;SDS011;9854;50.968;4.168;2023-03-01T13:53:19;8.95;;;8.05;;
19436;SDS011;9854;50.968;4.168;2023-03-01T13:55:48;8.77;;;7.63;;
19436;SDS011;9854;50.968;4.168;2023-03-01T13:58:28;10.00;;;7.28;;
19436;SDS011;9854;50.968;4.168;2023-03-01T14:01:05;9.43;;;7.95;;
19436;SDS011;9854;50.968;4.168;2023-03-01T14:03:39;8.88;;;7.97;;
19436;SDS011;9854;50.968;4.168;2023-03-01T14:06:14;6.07;;;5.55;;
19436;SDS011;9854;50.968;4.168;2023-03-01T14:08:43;8.93;;;7.80;;
19436;SDS011;9854;50.968;4.168;2023-03-01T14:14:17;8.68;;;7.45;;
19436;SDS011;9854;50.968;4.168;2023-03-01T14:19:42;9.35;;;7.35;;
19436;SDS011;9854;50.968;4.168;2023-03-01T14:22:25;9.77;;;7.15;;
19436;SDS011;9854;50.968;4.168;2023-03-01T14:27:23;12.98;;;7.65;;
19436;SDS011;9854;50.968;4.168;2023-03-01T14:29:56;10.00;;;6.93;;
19436;SDS011;9854;50.968;4.168;2023-03-01T14:32:25;9.98;;;7.32;;
19436;SDS011;9854;50.968;4.168;2023-03-01T14:34:52;9.80;;;6.93;;
19436;SDS011;9854;50.968;4.168;2023-03-01T14:39:47;8.30;;;7.53;;
19436;SDS011;9854;50.968;4.168;2023-03-01T14:42:13;10.50;;;6.88;;
19436;SDS011;9854;50.968;4.168;2023-03-01T14:44:41;8.48;;;7.65;;
19436;SDS011;9854;50.968;4.168;2023-03-01T14:47:20;7.32;;;6.72;;
19436;SDS011;9854;50.968;4.168;2023-03-01T14:50:09;15.90;;;8.02;;
19436;SDS011;9854;50.968;4.168;2023-03-01T14:52:48;11.45;;;7.68;;
19436;SDS011;9854;50.968;4.168;2023-03-01T14:55:21;9.15;;;6.55;;
19436;SDS011;9854;50.968;4.168;2023-03-01T14:58:02;10.63;;;7.50;;
19436;SDS011;9854;50.968;4.168;2023-03-01T15:00:29;8.38;;;6.75;;
19436;SDS011;9854;50.968;4.168;2023-03-01T15:02:58;9.98;;;7.00;;
19436;SDS011;9854;50.968;4.168;2023-03-01T15:05:38;7.50;;;6.70;;
19436;SDS011;9854;50.968;4.168;2023-03-01T15:08:05;12.00;;;6.93;;
19436;SDS011;9854;50.968;4.168;2023-03-01T15:10:32;7.85;;;7.05;;
19436;SDS011;9854;50.968;4.168;2023-03-01T15:13:21;10.00;;;7.30;;
19436;SDS011;9854;50.968;4.168;2023-03-01T15:15:48;7.93;;;6.25;;
19436;SDS011;9854;50.968;4.168;2023-03-01T15:18:17;7.55;;;6.32;;
19436;SDS011;9854;50.968;4.168;2023-03-01T15:20:44;10.65;;;6.47;;
19436;SDS011;9854;50.968;4.168;2023-03-01T15:23:19;7.70;;;7.00;;
19436;SDS011;9854;50.968;4.168;2023-03-01T15:25:50;8.73;;;7.53;;
19436;SDS011;9854;50.968;4.168;2023-03-01T15:28:26;7.68;;;6.90;;
19436;SDS011;9854;50.968;4.168;2023-03-01T15:30:58;9.55;;;7.50;;
19436;SDS011;9854;50.968;4.168;2023-03-01T15:33:52;8.00;;;7.20;;
19436;SDS011;9854;50.968;4.168;2023-03-01T15:36:33;8.63;;;7.72;;
19436;SDS011;9854;50.968;4.168;2023-03-01T15:42:07;8.30;;;7.53;;
19436;SDS011;9854;50.968;4.168;2023-03-01T15:45:09;7.40;;;6.70;;
19436;SDS011;9854;50.968;4.168;2023-03-01T15:47:56;9.60;;;7.40;;
19436;SDS011;9854;50.968;4.168;2023-03-01T15:50:31;7.82;;;7.03;;
19436;SDS011;9854;50.968;4.168;2023-03-01T15:53:03;8.35;;;7.57;;
19436;SDS011;9854;50.968;4.168;2023-03-01T15:55:33;10.98;;;7.32;;
19436;SDS011;9854;50.968;4.168;2023-03-01T15:58:00;10.38;;;7.88;;
19436;SDS011;9854;50.968;4.168;2023-03-01T16:00:29;11.40;;;7.70;;
19436;SDS011;9854;50.968;4.168;2023-03-01T16:02:55;10.75;;;8.20;;
19436;SDS011;9854;50.968;4.168;2023-03-01T16:05:23;9.95;;;8.07;;
19436;SDS011;9854;50.968;4.168;2023-03-01T16:07:56;9.00;;;7.78;;
19436;SDS011;9854;50.968;4.168;2023-03-01T16:10:22;9.10;;;8.13;;
19436;SDS011;9854;50.968;4.168;2023-03-01T16:12:49;7.72;;;7.00;;
19436;SDS011;9854;50.968;4.168;2023-03-01T16:15:20;8.55;;;7.40;;
19436;SDS011;9854;50.968;4.168;2023-03-01T16:17:49;8.77;;;7.65;;
19436;SDS011;9854;50.968;4.168;2023-03-01T16:20:15;12.25;;;8.00;;
19436;SDS011;9854;50.968;4.168;2023-03-01T16:22:44;10.55;;;8.05;;
19436;SDS011;9854;50.968;4.168;2023-03-01T16:25:11;11.10;;;6.65;;
19436;SDS011;9854;50.968;4.168;2023-03-01T16:27:41;9.38;;;7.75;;
19436;SDS011;9854;50.968;4.168;2023-03-01T16:30:08;8.98;;;8.07;;
19436;SDS011;9854;50.968;4.168;2023-03-01T16:32:38;7.97;;;7.10;;
19436;SDS011;9854;50.968;4.168;2023-03-01T16:35:05;7.10;;;6.50;;
19436;SDS011;9854;50.968;4.168;2023-03-01T16:37:32;9.73;;;7.30;;
19436;SDS011;9854;50.968;4.168;2023-03-01T16:39:58;8.27;;;6.97;;
19436;SDS011;9854;50.968;4.168;2023-03-01T16:42:24;7.88;;;7.05;;
19436;SDS011;9854;50.968;4.168;2023-03-01T16:44:56;13.55;;;7.10;;
19436;SDS011;9854;50.968;4.168;2023-03-01T16:47:22;8.38;;;7.57;;
19436;SDS011;9854;50.968;4.168;2023-03-01T16:49:51;7.55;;;6.88;;
19436;SDS011;9854;50.968;4.168;2023-03-01T16:52:20;8.88;;;7.78;;
19436;SDS011;9854;50.968;4.168;2023-03-01T16:54:47;10.13;;;7.85;;
19436;SDS011;9854;50.968;4.168;2023-03-01T16:57:13;8.85;;;7.95;;
19436;SDS011;9854;50.968;4.168;2023-03-01T16:59:39;10.32;;;7.63;;
19436;SDS011;9854;50.968;4.168;2023-03-01T17:02:06;8.60;;;7.60;;
19436;SDS011;9854;50.968;4.168;2023-03-01T17:04:36;13.52;;;8.48;;